KVGT/VGT METAR and TAF weather

Enter ICAO airport designator
Station Type Date Time Source
KVGT METAR 2022/07/01 01:53 UTC NOAA

KVGT 010153Z 23012KT 10SM CLR 39/02 A2981 RMK AO2 SLP077 T03940022


Station Type Date Time Source
KVGT Decoded METAR 2022/07/01 01:53 UTC NOAA

NORTH LAS VEGAS, NV, United States (KVGT) 36-12N 115-11W
Jun 30, 2022 - 09:53 PM EDT / 2022.07.01 0153 UTC
Wind: from the SW (230 degrees) at 14 MPH (12 KT):0
Visibility: 10 mile(s):0
Sky conditions: clear
Temperature: 102.9 F (39.4 C)
Dew Point: 36.0 F (2.2 C)
Relative Humidity: 10%
Pressure (altimeter): 29.81 in. Hg (1009 hPa)
ob: KVGT 010153Z 23012KT 10SM CLR 39/02 A2981 RMK AO2 SLP077 T03940022
cycle: 2

Station Type Date Time Source
KVGT TAF 2022/06/30 18:22 UTC NOAA

TAF KVGT 301720Z 3018/0118 19015G25KT P6SM FEW140
FM010100 24012G22KT P6SM FEW140
FM010900 18011KT P6SM SKC

Example: see airport list